Time;durP1;ratioP1;P1;durP2;ratioP2;P2;SDS_P1;SDS_P2;PMS_P1;PMS_P2;Temp;Humidity;BMP_temperature;BMP_pressure;BME280_temperature;BME280_humidity;BME280_pressure;Samples;Min_cycle;Max_cycle;Signal;HPM_P1;HPM_P2
2023/06/27 00:01:27;;;;;;;1.58;1.38;;;;;;;;;;6208321;23;20013;-85
2023/06/27 00:03:53;;;;;;;3.90;1.42;;;;;;;;;;6208193;23;20012;-86
2023/06/27 00:06:19;;;;;;;4.30;1.70;;;;;;;;;;6209763;23;20438;-85
2023/06/27 00:08:46;;;;;;;3.15;1.60;;;;;;;;;;6208008;23;20019;-86
2023/06/27 00:11:12;;;;;;;2.25;1.23;;;;;;;;;;6208974;23;20009;-86
2023/06/27 00:13:41;;;;;;;3.88;1.73;;;;;;;;;;6206952;23;20088;-86
2023/06/27 00:16:13;;;;;;;2.90;1.83;;;;;;;;;;6210710;23;20378;-86
2023/06/27 00:18:40;;;;;;;2.00;1.30;;;;;;;;;;6209115;23;20008;-86
2023/06/27 00:21:06;;;;;;;3.90;1.65;;;;;;;;;;6207306;23;20009;-86
2023/06/27 00:23:35;;;;;;;3.22;1.67;;;;;;;;;;6205194;23;20012;-85
2023/06/27 00:26:06;;;;;;;3.67;1.88;;;;;;;;;;6208300;23;20020;-85
2023/06/27 00:28:32;;;;;;;3.00;1.80;;;;;;;;;;6207481;23;20337;-86
2023/06/27 00:30:58;;;;;;;4.30;1.88;;;;;;;;;;6208655;23;20083;-86
2023/06/27 00:33:24;;;;;;;2.78;1.80;;;;;;;;;;6207218;23;20067;-86
2023/06/27 00:35:51;;;;;;;2.72;1.90;;;;;;;;;;6204797;23;20385;-85
2023/06/27 00:38:17;;;;;;;2.33;1.77;;;;;;;;;;6205580;23;20354;-85
2023/06/27 00:40:43;;;;;;;3.95;1.67;;;;;;;;;;6209617;23;20008;-86
2023/06/27 00:43:09;;;;;;;3.25;1.67;;;;;;;;;;6209589;23;20020;-86
2023/06/27 00:45:35;;;;;;;3.42;1.65;;;;;;;;;;6206760;23;20020;-86
2023/06/27 00:48:01;;;;;;;2.83;1.75;;;;;;;;;;6209104;23;20017;-86
2023/06/27 00:50:27;;;;;;;2.83;1.38;;;;;;;;;;6205779;23;20012;-86
2023/06/27 00:52:53;;;;;;;2.63;1.85;;;;;;;;;;6206572;23;20012;-86
2023/06/27 00:55:20;;;;;;;4.25;2.10;;;;;;;;;;6207507;23;20019;-86
2023/06/27 00:57:47;;;;;;;3.75;1.75;;;;;;;;;;6182197;23;20091;-86
2023/06/27 01:00:13;;;;;;;2.10;1.75;;;;;;;;;;6207827;23;20472;-85
2023/06/27 01:02:40;;;;;;;2.03;1.58;;;;;;;;;;6206536;23;20013;-86
2023/06/27 01:05:06;;;;;;;4.15;1.88;;;;;;;;;;6207967;23;20009;-86
2023/06/27 01:07:34;;;;;;;2.50;1.95;;;;;;;;;;6209319;23;20020;-86
2023/06/27 01:10:03;;;;;;;3.50;1.95;;;;;;;;;;6207076;23;20454;-86
2023/06/27 01:12:36;;;;;;;2.80;1.92;;;;;;;;;;6207365;23;20050;-85
2023/06/27 01:15:03;;;;;;;2.10;1.90;;;;;;;;;;6206389;23;20137;-86
2023/06/27 01:17:32;;;;;;;2.92;1.73;;;;;;;;;;6207652;23;20023;-86
2023/06/27 01:19:59;;;;;;;2.40;2.03;;;;;;;;;;6211161;23;20453;-86
2023/06/27 01:22:36;;;;;;;3.38;2.03;;;;;;;;;;6208143;23;20032;-86
2023/06/27 01:25:03;;;;;;;2.97;1.67;;;;;;;;;;6208797;23;20021;-86
2023/06/27 01:27:29;;;;;;;2.50;1.83;;;;;;;;;;6210208;23;20016;-86
2023/06/27 01:29:56;;;;;;;2.38;2.17;;;;;;;;;;6210454;23;20357;-86
2023/06/27 01:32:25;;;;;;;3.47;2.00;;;;;;;;;;6207719;23;20024;-86
2023/06/27 01:34:56;;;;;;;3.40;1.92;;;;;;;;;;6209752;23;20035;-86
2023/06/27 01:37:25;;;;;;;2.85;1.80;;;;;;;;;;6206859;23;20078;-86
2023/06/27 01:39:58;;;;;;;2.72;1.60;;;;;;;;;;6211386;23;20315;-86
2023/06/27 01:42:26;;;;;;;2.72;2.10;;;;;;;;;;6211001;23;20012;-86
2023/06/27 01:44:52;;;;;;;3.30;1.88;;;;;;;;;;6210249;23;20008;-86
2023/06/27 01:47:18;;;;;;;3.13;1.77;;;;;;;;;;6209367;23;20027;-86
2023/06/27 01:49:44;;;;;;;4.97;1.83;;;;;;;;;;6210227;23;20013;-86
2023/06/27 01:52:12;;;;;;;2.50;1.70;;;;;;;;;;6208899;23;20023;-86
2023/06/27 01:54:39;;;;;;;3.92;1.67;;;;;;;;;;6209950;23;20016;-86
2023/06/27 01:57:05;;;;;;;3.25;2.05;;;;;;;;;;6209929;23;20382;-86
2023/06/27 01:59:31;;;;;;;2.65;2.10;;;;;;;;;;6210101;23;20071;-86
2023/06/27 02:01:57;;;;;;;3.75;1.63;;;;;;;;;;6209753;23;20012;-86
2023/06/27 02:04:23;;;;;;;2.70;1.90;;;;;;;;;;6210730;23;20035;-86
2023/06/27 02:06:49;;;;;;;3.50;2.05;;;;;;;;;;6210398;23;20195;-86
2023/06/27 02:09:15;;;;;;;3.05;1.77;;;;;;;;;;6211071;23;20047;-86
2023/06/27 02:11:41;;;;;;;4.50;2.05;;;;;;;;;;6211687;23;20036;-86
2023/06/27 02:14:07;;;;;;;4.88;1.95;;;;;;;;;;6210061;23;20017;-86
2023/06/27 02:16:33;;;;;;;2.78;1.75;;;;;;;;;;6208480;23;20343;-86
2023/06/27 02:18:59;;;;;;;3.97;1.90;;;;;;;;;;6208534;23;20023;-86
2023/06/27 02:21:25;;;;;;;4.75;2.60;;;;;;;;;;6208103;23;20444;-86
2023/06/27 02:23:51;;;;;;;3.22;2.10;;;;;;;;;;6206777;23;20588;-86
2023/06/27 02:26:18;;;;;;;5.28;1.98;;;;;;;;;;6209154;23;20071;-86
2023/06/27 02:28:44;;;;;;;3.35;1.83;;;;;;;;;;6212049;23;20013;-86
2023/06/27 02:31:10;;;;;;;2.45;2.15;;;;;;;;;;6208964;23;20032;-85
2023/06/27 02:33:37;;;;;;;4.13;2.05;;;;;;;;;;6209593;23;20048;-86
2023/06/27 02:36:03;;;;;;;2.95;2.50;;;;;;;;;;6208677;23;20017;-86
2023/06/27 02:38:30;;;;;;;2.55;2.08;;;;;;;;;;6208176;23;20397;-87
2023/06/27 02:40:56;;;;;;;3.65;2.15;;;;;;;;;;6209258;23;20368;-86
2023/06/27 02:43:22;;;;;;;3.45;2.28;;;;;;;;;;6209038;23;20036;-86
2023/06/27 02:45:48;;;;;;;4.18;2.17;;;;;;;;;;6207537;23;20013;-86
2023/06/27 02:48:14;;;;;;;2.63;2.20;;;;;;;;;;6209867;23;20013;-86
2023/06/27 02:50:40;;;;;;;2.22;1.98;;;;;;;;;;6207505;23;20020;-86
2023/06/27 02:53:06;;;;;;;2.92;2.33;;;;;;;;;;6207833;23;20008;-86
2023/06/27 02:55:32;;;;;;;3.40;2.20;;;;;;;;;;6209296;23;20024;-85
2023/06/27 02:57:58;;;;;;;3.47;2.25;;;;;;;;;;6209241;23;20017;-86
2023/06/27 03:00:24;;;;;;;4.80;2.90;;;;;;;;;;6210412;23;20049;-86
2023/06/27 03:02:50;;;;;;;2.92;2.15;;;;;;;;;;6208908;23;20188;-86
2023/06/27 03:05:16;;;;;;;3.63;2.40;;;;;;;;;;6206207;23;20354;-85
2023/06/27 03:07:42;;;;;;;3.70;2.45;;;;;;;;;;6205865;23;20021;-86
2023/06/27 03:10:08;;;;;;;3.92;2.42;;;;;;;;;;6209218;23;20016;-86
2023/06/27 03:12:34;;;;;;;3.72;2.10;;;;;;;;;;6211370;23;20092;-86
2023/06/27 03:15:03;;;;;;;3.63;2.50;;;;;;;;;;6210571;23;20442;-85
2023/06/27 03:17:30;;;;;;;4.13;2.60;;;;;;;;;;6209424;23;20032;-86
2023/06/27 03:19:56;;;;;;;4.78;2.13;;;;;;;;;;6204278;23;20009;-86
2023/06/27 03:22:22;;;;;;;3.40;2.33;;;;;;;;;;6206486;23;20443;-86
2023/06/27 03:24:48;;;;;;;5.35;2.80;;;;;;;;;;6179483;23;20012;-86
2023/06/27 03:27:14;;;;;;;5.53;3.40;;;;;;;;;;6208145;23;20028;-86
2023/06/27 03:29:40;;;;;;;4.20;2.45;;;;;;;;;;6206601;23;20350;-86
2023/06/27 03:32:07;;;;;;;4.38;2.33;;;;;;;;;;6208737;23;20016;-85
2023/06/27 03:34:33;;;;;;;5.25;2.80;;;;;;;;;;6207370;23;20395;-86
2023/06/27 03:36:59;;;;;;;4.47;2.55;;;;;;;;;;6207175;23;20021;-86
2023/06/27 03:39:25;;;;;;;4.53;2.63;;;;;;;;;;6209013;23;20335;-86
2023/06/27 03:41:51;;;;;;;5.35;2.65;;;;;;;;;;6209110;23;20023;-86
2023/06/27 03:44:17;;;;;;;2.88;2.03;;;;;;;;;;6208305;23;20009;-86
2023/06/27 03:46:43;;;;;;;4.15;2.85;;;;;;;;;;6210595;23;20019;-86
2023/06/27 03:49:09;;;;;;;4.63;2.75;;;;;;;;;;6208658;23;20013;-86
2023/06/27 03:51:40;;;;;;;4.20;2.83;;;;;;;;;;6211079;23;20048;-86
2023/06/27 03:54:06;;;;;;;4.45;2.60;;;;;;;;;;6209774;23;20020;-86
2023/06/27 03:56:32;;;;;;;5.30;3.20;;;;;;;;;;6209213;23;20028;-86
2023/06/27 03:58:59;;;;;;;5.63;2.83;;;;;;;;;;6210703;23;20013;-86
2023/06/27 04:01:25;;;;;;;4.40;2.88;;;;;;;;;;6207812;23;20012;-86
2023/06/27 04:03:51;;;;;;;6.20;2.92;;;;;;;;;;6208047;23;20020;-86
2023/06/27 04:06:18;;;;;;;6.97;3.10;;;;;;;;;;6210708;23;20013;-87
2023/06/27 04:08:44;;;;;;;3.35;2.60;;;;;;;;;;6211192;23;20013;-86
2023/06/27 04:11:10;;;;;;;4.00;3.13;;;;;;;;;;6209932;23;20126;-86
2023/06/27 04:13:37;;;;;;;5.05;2.92;;;;;;;;;;6209418;23;20009;-86
2023/06/27 04:16:03;;;;;;;6.65;2.92;;;;;;;;;;6209663;23;20042;-86
2023/06/27 04:18:30;;;;;;;5.22;3.13;;;;;;;;;;6210669;23;20031;-85
2023/06/27 04:20:56;;;;;;;4.93;2.90;;;;;;;;;;6208017;23;20074;-86
2023/06/27 04:23:22;;;;;;;5.38;3.15;;;;;;;;;;6208376;23;20509;-86
2023/06/27 04:26:07;;;;;;;5.63;3.03;;;;;;;;;;6208871;23;20407;-86
2023/06/27 04:28:36;;;;;;;3.08;2.35;;;;;;;;;;6208791;23;20062;-85
2023/06/27 04:31:03;;;;;;;4.63;2.85;;;;;;;;;;6207403;23;20023;-85
2023/06/27 04:33:29;;;;;;;4.63;3.28;;;;;;;;;;6209469;23;20013;-85
2023/06/27 04:36:00;;;;;;;4.90;2.90;;;;;;;;;;6208577;23;20454;-86
2023/06/27 04:38:27;;;;;;;5.25;2.75;;;;;;;;;;6207700;23;20019;-85
2023/06/27 04:40:53;;;;;;;4.85;2.92;;;;;;;;;;6208824;23;20017;-85
2023/06/27 04:43:19;;;;;;;4.90;3.28;;;;;;;;;;6209449;23;20009;-85
2023/06/27 04:45:45;;;;;;;5.00;3.05;;;;;;;;;;6206543;23;20044;-86
2023/06/27 04:48:11;;;;;;;3.83;2.88;;;;;;;;;;6210129;23;20067;-85
2023/06/27 04:50:37;;;;;;;4.63;2.65;;;;;;;;;;6208120;23;20013;-85
2023/06/27 04:53:03;;;;;;;7.45;3.90;;;;;;;;;;6210998;23;20058;-85
2023/06/27 04:55:29;;;;;;;5.57;3.38;;;;;;;;;;6209151;23;20012;-86
2023/06/27 04:57:55;;;;;;;5.57;3.20;;;;;;;;;;6209061;23;20016;-85
2023/06/27 05:00:22;;;;;;;4.85;3.13;;;;;;;;;;6209121;23;20013;-85
2023/06/27 05:02:48;;;;;;;6.65;3.10;;;;;;;;;;6209541;23;20012;-85
2023/06/27 05:05:14;;;;;;;4.72;3.10;;;;;;;;;;6210161;23;20019;-85
2023/06/27 05:07:40;;;;;;;4.85;2.95;;;;;;;;;;6209493;23;20025;-86
2023/06/27 05:10:06;;;;;;;5.07;3.25;;;;;;;;;;6207854;23;20330;-85
2023/06/27 05:12:32;;;;;;;3.35;2.63;;;;;;;;;;6207867;23;20020;-83
2023/06/27 05:14:58;;;;;;;4.95;3.05;;;;;;;;;;6208580;23;20196;-84
2023/06/27 05:17:24;;;;;;;6.22;3.47;;;;;;;;;;6208595;23;20023;-83
2023/06/27 05:19:50;;;;;;;7.07;3.67;;;;;;;;;;6207296;23;20013;-83
2023/06/27 05:22:16;;;;;;;3.80;2.83;;;;;;;;;;6207755;23;20092;-83
2023/06/27 05:24:42;;;;;;;6.13;3.38;;;;;;;;;;6210836;23;20040;-84
2023/06/27 05:27:08;;;;;;;7.20;3.00;;;;;;;;;;6209970;23;20016;-84
2023/06/27 05:29:34;;;;;;;6.60;3.42;;;;;;;;;;6208954;23;20039;-83
2023/06/27 05:32:00;;;;;;;4.40;2.85;;;;;;;;;;6209877;23;20025;-84
2023/06/27 05:34:26;;;;;;;5.15;3.28;;;;;;;;;;6207348;23;20017;-84
2023/06/27 05:36:52;;;;;;;4.15;3.47;;;;;;;;;;6209528;23;20020;-83
2023/06/27 05:39:18;;;;;;;4.78;2.45;;;;;;;;;;6210772;23;20017;-83
2023/06/27 05:41:44;;;;;;;7.22;3.40;;;;;;;;;;6184576;23;20023;-83
2023/06/27 05:44:10;;;;;;;6.03;2.83;;;;;;;;;;6209508;23;20324;-84
2023/06/27 05:46:39;;;;;;;4.53;3.00;;;;;;;;;;6209798;23;20027;-83
2023/06/27 05:49:06;;;;;;;3.67;2.65;;;;;;;;;;6210569;23;20094;-83
2023/06/27 05:51:32;;;;;;;3.58;2.58;;;;;;;;;;6209767;23;20638;-81
2023/06/27 05:53:58;;;;;;;3.83;2.42;;;;;;;;;;6209303;23;20273;-83
2023/06/27 05:56:24;;;;;;;6.75;2.33;;;;;;;;;;6209897;23;20021;-83
2023/06/27 05:58:50;;;;;;;2.47;1.83;;;;;;;;;;6207999;23;20015;-80
2023/06/27 06:01:16;;;;;;;3.55;2.17;;;;;;;;;;6210244;23;20315;-82
2023/06/27 06:03:43;;;;;;;3.45;1.90;;;;;;;;;;6210772;23;20015;-83
2023/06/27 06:06:11;;;;;;;4.72;2.28;;;;;;;;;;6210406;23;20075;-82
2023/06/27 06:08:37;;;;;;;2.72;1.58;;;;;;;;;;6211861;23;20338;-85
2023/06/27 06:11:03;;;;;;;3.22;1.90;;;;;;;;;;6211688;23;20142;-85
2023/06/27 06:13:29;;;;;;;2.38;1.50;;;;;;;;;;6209836;23;20438;-87
2023/06/27 06:15:55;;;;;;;4.00;1.50;;;;;;;;;;6210588;23;20021;-85
2023/06/27 06:18:21;;;;;;;5.95;1.80;;;;;;;;;;6209924;23;20017;-84
2023/06/27 06:20:47;;;;;;;4.65;1.73;;;;;;;;;;6211366;23;20016;-88
2023/06/27 06:23:13;;;;;;;4.20;1.20;;;;;;;;;;6187614;23;20488;-87
2023/06/27 06:25:39;;;;;;;3.63;1.92;;;;;;;;;;6212262;23;20013;-91
2023/06/27 06:28:05;;;;;;;3.75;1.23;;;;;;;;;;6215476;23;20020;-96
2023/06/27 06:30:31;;;;;;;1.88;0.88;;;;;;;;;;6188251;23;20013;-91
2023/06/27 06:32:57;;;;;;;2.85;1.25;;;;;;;;;;6214854;23;20044;-93
2023/06/27 06:35:23;;;;;;;1.83;1.13;;;;;;;;;;6209424;23;20409;-90
2023/06/27 06:37:49;;;;;;;2.55;0.90;;;;;;;;;;6212444;23;20386;-89
2023/06/27 06:40:15;;;;;;;2.25;1.10;;;;;;;;;;6215308;23;20000;-94
2023/06/27 06:42:42;;;;;;;2.78;0.90;;;;;;;;;;6210611;23;20021;-92
2023/06/27 06:45:09;;;;;;;2.65;0.88;;;;;;;;;;6187284;23;20438;-94
2023/06/27 06:47:35;;;;;;;1.85;0.90;;;;;;;;;;6214332;23;20342;-91
2023/06/27 06:50:02;;;;;;;4.10;1.42;;;;;;;;;;6214466;23;20342;-94
2023/06/27 06:52:29;;;;;;;3.70;0.85;;;;;;;;;;6192399;23;20019;-93
2023/06/27 06:54:55;;;;;;;3.00;1.27;;;;;;;;;;6210526;23;20066;-93
2023/06/27 06:57:21;;;;;;;2.63;2.35;;;;;;;;;;6188810;23;20342;-89
2023/06/27 06:59:47;;;;;;;5.13;1.20;;;;;;;;;;6213496;23;20016;-91
2023/06/27 07:02:13;;;;;;;2.33;0.77;;;;;;;;;;6207330;23;20015;-84
2023/06/27 07:04:39;;;;;;;1.45;0.73;;;;;;;;;;6210038;23;20017;-89
2023/06/27 07:07:05;;;;;;;1.73;0.50;;;;;;;;;;6210913;23;20048;-88
2023/06/27 07:09:31;;;;;;;1.02;0.60;;;;;;;;;;6210573;23;20016;-89
2023/06/27 07:11:58;;;;;;;1.35;0.60;;;;;;;;;;6210373;23;20108;-90
2023/06/27 07:14:24;;;;;;;1.45;0.60;;;;;;;;;;6212757;23;20143;-89
2023/06/27 07:16:50;;;;;;;0.63;0.45;;;;;;;;;;6211329;23;20017;-88
2023/06/27 07:19:16;;;;;;;1.65;0.60;;;;;;;;;;6210601;23;20023;-85
2023/06/27 07:21:42;;;;;;;2.63;0.75;;;;;;;;;;6209661;23;20059;-86
2023/06/27 07:24:09;;;;;;;2.42;0.75;;;;;;;;;;6211946;23;20079;-91
2023/06/27 07:26:35;;;;;;;1.30;0.60;;;;;;;;;;6209978;23;20016;-85
2023/06/27 07:29:02;;;;;;;2.85;0.60;;;;;;;;;;6208627;23;20012;-86
2023/06/27 07:31:28;;;;;;;1.95;0.60;;;;;;;;;;6207655;23;20070;-89
2023/06/27 07:33:55;;;;;;;1.15;0.47;;;;;;;;;;6209165;23;20020;-86
2023/06/27 07:36:21;;;;;;;2.83;0.80;;;;;;;;;;6209364;23;20020;-84
2023/06/27 07:38:47;;;;;;;2.15;0.80;;;;;;;;;;6211202;23;20009;-85
2023/06/27 07:41:13;;;;;;;2.80;0.52;;;;;;;;;;6208171;23;20399;-85
2023/06/27 07:43:39;;;;;;;1.48;0.57;;;;;;;;;;6208201;23;20044;-87
2023/06/27 07:46:05;;;;;;;2.28;0.45;;;;;;;;;;6207344;23;20016;-87
2023/06/27 07:48:31;;;;;;;1.42;0.40;;;;;;;;;;6209738;23;20013;-89
2023/06/27 07:50:57;;;;;;;2.28;0.70;;;;;;;;;;6208739;23;20016;-83
2023/06/27 07:53:23;;;;;;;1.70;0.60;;;;;;;;;;6208960;23;20023;-82
2023/06/27 07:55:49;;;;;;;2.20;0.60;;;;;;;;;;6209424;23;20009;-85
2023/06/27 07:58:15;;;;;;;2.08;0.70;;;;;;;;;;6209498;23;20380;-85
2023/06/27 08:00:41;;;;;;;1.75;0.73;;;;;;;;;;6207822;23;20070;-83
2023/06/27 08:03:07;;;;;;;2.40;0.63;;;;;;;;;;6208608;23;20347;-84
2023/06/27 08:05:35;;;;;;;1.88;0.70;;;;;;;;;;6209147;23;20013;-83
2023/06/27 08:08:02;;;;;;;1.80;0.50;;;;;;;;;;6208468;23;20021;-85
2023/06/27 08:10:28;;;;;;;2.15;0.52;;;;;;;;;;6208824;23;20363;-83
2023/06/27 08:12:54;;;;;;;1.58;0.60;;;;;;;;;;6210850;23;20013;-85
2023/06/27 08:15:22;;;;;;;1.73;0.60;;;;;;;;;;6209455;23;20043;-89
2023/06/27 08:17:48;;;;;;;1.45;0.50;;;;;;;;;;6209238;23;20087;-84
2023/06/27 08:20:14;;;;;;;2.40;0.93;;;;;;;;;;6209469;23;20020;-83
2023/06/27 08:22:40;;;;;;;1.92;0.50;;;;;;;;;;6210317;23;20016;-82
2023/06/27 08:25:06;;;;;;;1.77;0.63;;;;;;;;;;6207764;23;20094;-85
2023/06/27 08:27:32;;;;;;;2.45;1.02;;;;;;;;;;6207855;23;20244;-82
2023/06/27 08:29:58;;;;;;;1.23;0.50;;;;;;;;;;6209248;23;20458;-85
2023/06/27 08:32:24;;;;;;;2.08;0.52;;;;;;;;;;6208608;23;20099;-80
2023/06/27 08:34:50;;;;;;;2.33;0.50;;;;;;;;;;6205607;23;20052;-82
2023/06/27 08:37:16;;;;;;;1.05;0.47;;;;;;;;;;6206905;23;20021;-84
2023/06/27 08:39:42;;;;;;;0.70;0.40;;;;;;;;;;6211137;23;20083;-83
2023/06/27 08:42:08;;;;;;;2.03;0.65;;;;;;;;;;6210240;23;20020;-82
2023/06/27 08:44:34;;;;;;;2.30;0.88;;;;;;;;;;6210999;23;20009;-82
2023/06/27 08:47:03;;;;;;;2.05;0.47;;;;;;;;;;6207832;23;20095;-84
2023/06/27 08:49:32;;;;;;;1.67;0.43;;;;;;;;;;6208630;23;20027;-88
2023/06/27 08:52:01;;;;;;;1.95;0.50;;;;;;;;;;6210463;23;20020;-86
2023/06/27 08:54:38;;;;;;;1.77;0.43;;;;;;;;;;6208205;23;20028;-84
2023/06/27 08:57:06;;;;;;;1.45;0.30;;;;;;;;;;6207994;23;20450;-83
2023/06/27 08:59:35;;;;;;;2.30;0.82;;;;;;;;;;6208873;23;20016;-81
2023/06/27 09:02:03;;;;;;;1.20;0.50;;;;;;;;;;6208710;23;20013;-84
2023/06/27 09:04:32;;;;;;;1.65;0.60;;;;;;;;;;6210417;23;20019;-83
2023/06/27 09:06:59;;;;;;;1.10;0.45;;;;;;;;;;6209294;23;20390;-86
2023/06/27 09:09:25;;;;;;;2.42;0.40;;;;;;;;;;6210471;23;20047;-84
2023/06/27 09:11:51;;;;;;;2.13;0.90;;;;;;;;;;6209069;23;20013;-84
2023/06/27 09:14:17;;;;;;;1.67;0.32;;;;;;;;;;6208632;23;20306;-83
2023/06/27 09:16:44;;;;;;;2.22;0.50;;;;;;;;;;6208092;23;20027;-86
2023/06/27 09:19:10;;;;;;;1.95;0.80;;;;;;;;;;6209746;23;20091;-86
2023/06/27 09:21:36;;;;;;;2.65;0.65;;;;;;;;;;6207923;23;20012;-84
2023/06/27 09:24:06;;;;;;;4.30;0.55;;;;;;;;;;6210925;23;20044;-83
2023/06/27 09:26:32;;;;;;;2.88;0.70;;;;;;;;;;6207527;23;20094;-86
2023/06/27 09:28:59;;;;;;;2.13;0.43;;;;;;;;;;6210881;23;20023;-83
2023/06/27 09:31:26;;;;;;;1.48;0.50;;;;;;;;;;6207950;23;20063;-82
2023/06/27 09:34:02;;;;;;;1.92;0.40;;;;;;;;;;6208101;23;20092;-83
2023/06/27 09:36:32;;;;;;;1.10;0.50;;;;;;;;;;6207628;23;20056;-81
2023/06/27 09:39:01;;;;;;;1.08;0.40;;;;;;;;;;6211514;23;20048;-82
2023/06/27 09:41:40;;;;;;;2.85;0.80;;;;;;;;;;6210341;23;20013;-81
2023/06/27 09:44:10;;;;;;;1.75;0.43;;;;;;;;;;6210293;23;20024;-82
2023/06/27 09:46:36;;;;;;;;;;;;;;;;;;6210608;23;20024;-82
2023/06/27 09:49:05;;;;;;;1.65;0.60;;;;;;;;;;6209620;23;19911;-85
2023/06/27 09:51:32;;;;;;;1.67;0.55;;;;;;;;;;6211137;23;20092;-85
2023/06/27 09:53:58;;;;;;;1.23;0.60;;;;;;;;;;6212397;23;20067;-83
2023/06/27 09:56:35;;;;;;;1.73;0.70;;;;;;;;;;6208864;23;20021;-87
2023/06/27 09:59:11;;;;;;;3.40;0.80;;;;;;;;;;6210042;23;20017;-81
2023/06/27 10:01:37;;;;;;;2.47;0.73;;;;;;;;;;6211791;23;20040;-81
2023/06/27 10:04:04;;;;;;;1.83;0.47;;;;;;;;;;6208353;23;20071;-82
2023/06/27 10:06:32;;;;;;;3.90;0.98;;;;;;;;;;6209972;23;20032;-86
2023/06/27 10:08:58;;;;;;;2.63;0.63;;;;;;;;;;6212083;23;20020;-82
2023/06/27 10:11:25;;;;;;;4.47;1.02;;;;;;;;;;6211429;23;20020;-82
2023/06/27 10:13:51;;;;;;;2.85;0.60;;;;;;;;;;6211968;23;20186;-82
2023/06/27 10:16:17;;;;;;;0.82;0.40;;;;;;;;;;6210091;23;20012;-88
2023/06/27 10:18:43;;;;;;;2.15;0.73;;;;;;;;;;6211195;23;20098;-82
2023/06/27 10:21:12;;;;;;;2.33;0.55;;;;;;;;;;6212518;23;20023;-86
2023/06/27 10:23:41;;;;;;;2.72;0.57;;;;;;;;;;6209760;23;20016;-82
2023/06/27 10:26:09;;;;;;;1.38;0.45;;;;;;;;;;6184140;23;20017;-86
2023/06/27 10:28:35;;;;;;;2.50;0.63;;;;;;;;;;6212295;23;20009;-84
2023/06/27 10:31:05;;;;;;;3.63;0.80;;;;;;;;;;6211448;23;20078;-82
2023/06/27 10:33:32;;;;;;;3.70;0.60;;;;;;;;;;6210632;23;20012;-84
2023/06/27 10:36:05;;;;;;;1.55;0.75;;;;;;;;;;6211762;23;20030;-83
2023/06/27 10:38:35;;;;;;;2.03;0.40;;;;;;;;;;6213862;23;20346;-83
2023/06/27 10:41:07;;;;;;;1.20;0.50;;;;;;;;;;6211666;23;20020;-85
2023/06/27 10:43:52;;;;;;;2.42;0.88;;;;;;;;;;6210003;23;20012;-84
2023/06/27 10:46:18;;;;;;;2.70;0.60;;;;;;;;;;6210746;23;20500;-85
2023/06/27 10:48:50;;;;;;;1.48;0.57;;;;;;;;;;6211144;23;20334;-83
2023/06/27 10:51:21;;;;;;;1.13;0.50;;;;;;;;;;6209579;23;20048;-84
2023/06/27 10:54:06;;;;;;;2.17;0.73;;;;;;;;;;6210315;23;20024;-83
2023/06/27 10:56:33;;;;;;;3.63;0.68;;;;;;;;;;6211444;23;20008;-86
2023/06/27 10:58:59;;;;;;;2.60;0.70;;;;;;;;;;6209761;23;20328;-84
2023/06/27 11:01:29;;;;;;;1.50;0.43;;;;;;;;;;6209189;23;20012;-85
2023/06/27 11:03:57;;;;;;;3.45;0.70;;;;;;;;;;6209854;23;20393;-85
2023/06/27 11:06:45;;;;;;;3.25;1.00;;;;;;;;;;6210147;23;20387;-81
2023/06/27 11:09:13;;;;;;;2.08;0.55;;;;;;;;;;6208626;23;20083;-81
2023/06/27 11:11:39;;;;;;;1.65;0.50;;;;;;;;;;6208385;23;20013;-84
2023/06/27 11:14:09;;;;;;;1.10;0.85;;;;;;;;;;6210582;23;20099;-85
2023/06/27 11:16:36;;;;;;;2.53;0.93;;;;;;;;;;6210614;23;20095;-88
2023/06/27 11:19:02;;;;;;;0.30;0.30;;;;;;;;;;6209773;23;20142;-88
2023/06/27 11:21:31;;;;;;;0.90;0.63;;;;;;;;;;6211416;23;20016;-85
2023/06/27 11:23:58;;;;;;;1.10;0.40;;;;;;;;;;6211008;23;20029;-86
2023/06/27 11:26:24;;;;;;;1.45;0.40;;;;;;;;;;6210011;23;20034;-84
2023/06/27 11:28:50;;;;;;;0.60;0.57;;;;;;;;;;6211354;23;20035;-87
2023/06/27 11:31:17;;;;;;;0.98;0.43;;;;;;;;;;6209354;23;20095;-87
2023/06/27 11:33:43;;;;;;;1.95;0.43;;;;;;;;;;6208871;23;20639;-86
2023/06/27 11:36:09;;;;;;;0.85;0.40;;;;;;;;;;6208816;23;20091;-90
2023/06/27 11:38:36;;;;;;;1.80;0.68;;;;;;;;;;6209371;23;20016;-85
2023/06/27 11:41:02;;;;;;;3.58;0.65;;;;;;;;;;6208492;23;20013;-85
2023/06/27 11:43:28;;;;;;;1.45;0.50;;;;;;;;;;6207559;23;20110;-85
2023/06/27 11:45:57;;;;;;;2.47;0.60;;;;;;;;;;6210256;23;20012;-87
2023/06/27 11:48:23;;;;;;;2.25;0.73;;;;;;;;;;6212029;23;20060;-87
2023/06/27 11:50:56;;;;;;;0.98;0.60;;;;;;;;;;6211558;23;20044;-87
2023/06/27 11:53:28;;;;;;;1.42;0.50;;;;;;;;;;6209801;23;20028;-85
2023/06/27 11:55:55;;;;;;;2.13;0.55;;;;;;;;;;6210774;23;20048;-86
2023/06/27 11:58:29;;;;;;;2.33;0.70;;;;;;;;;;6209387;23;20087;-87
2023/06/27 12:00:55;;;;;;;1.15;0.50;;;;;;;;;;6209334;23;20272;-89
2023/06/27 12:03:25;;;;;;;1.42;0.65;;;;;;;;;;6209924;23;20019;-90
2023/06/27 12:05:51;;;;;;;2.13;0.90;;;;;;;;;;6184036;23;20009;-86
2023/06/27 12:08:20;;;;;;;2.40;0.68;;;;;;;;;;6211061;23;20019;-85
2023/06/27 12:10:57;;;;;;;5.50;0.82;;;;;;;;;;6211457;23;20496;-85
2023/06/27 12:13:30;;;;;;;1.35;0.52;;;;;;;;;;6211803;23;20070;-87
2023/06/27 12:15:56;;;;;;;2.38;0.50;;;;;;;;;;6210853;23;20296;-84
2023/06/27 12:18:23;;;;;;;2.88;0.60;;;;;;;;;;6211499;23;20024;-85
2023/06/27 12:20:51;;;;;;;3.30;0.65;;;;;;;;;;6209715;23;20044;-85
2023/06/27 12:23:17;;;;;;;1.42;0.57;;;;;;;;;;6209149;23;20017;-85
2023/06/27 12:25:43;;;;;;;1.38;0.70;;;;;;;;;;6208479;23;20019;-85
2023/06/27 12:28:09;;;;;;;2.38;0.75;;;;;;;;;;6209572;23;20024;-84
2023/06/27 12:30:35;;;;;;;4.25;0.90;;;;;;;;;;6210781;23;20493;-89
2023/06/27 12:33:01;;;;;;;2.20;0.57;;;;;;;;;;6208715;23;20020;-88
2023/06/27 12:35:31;;;;;;;2.83;0.55;;;;;;;;;;6184572;23;20442;-84
2023/06/27 12:37:57;;;;;;;1.00;0.55;;;;;;;;;;6211073;23;20335;-89
2023/06/27 12:40:24;;;;;;;0.55;0.32;;;;;;;;;;6210120;23;20084;-84
2023/06/27 12:42:51;;;;;;;1.42;0.32;;;;;;;;;;6208683;23;20020;-88
2023/06/27 12:45:17;;;;;;;2.15;0.68;;;;;;;;;;6207549;23;20013;-85
2023/06/27 12:47:44;;;;;;;3.13;0.52;;;;;;;;;;6183709;23;20020;-93
2023/06/27 12:50:14;;;;;;;2.13;0.65;;;;;;;;;;6183449;23;20023;-87
2023/06/27 12:52:47;;;;;;;2.65;0.60;;;;;;;;;;6208491;23;20020;-84
2023/06/27 12:55:13;;;;;;;1.58;0.60;;;;;;;;;;6207489;23;20442;-84
2023/06/27 12:57:39;;;;;;;2.75;0.60;;;;;;;;;;6208678;23;20035;-88
2023/06/27 13:00:08;;;;;;;1.92;0.55;;;;;;;;;;6209077;23;20099;-87
2023/06/27 13:02:35;;;;;;;3.60;0.63;;;;;;;;;;6209447;23;20084;-84
2023/06/27 13:05:01;;;;;;;1.10;0.40;;;;;;;;;;6208398;23;20161;-84
2023/06/27 13:07:27;;;;;;;2.00;0.60;;;;;;;;;;6210344;23;20048;-82
2023/06/27 13:09:53;;;;;;;1.98;0.63;;;;;;;;;;6208949;23;20055;-85
2023/06/27 13:12:21;;;;;;;2.78;0.73;;;;;;;;;;6208076;23;20025;-90
2023/06/27 13:14:47;;;;;;;2.63;1.05;;;;;;;;;;6209961;23;20035;-90
2023/06/27 13:17:13;;;;;;;2.97;0.80;;;;;;;;;;6212892;23;20334;-86
2023/06/27 13:19:39;;;;;;;1.55;0.68;;;;;;;;;;6210219;23;20016;-87
2023/06/27 13:22:05;;;;;;;1.05;0.73;;;;;;;;;;6206311;23;20401;-84
2023/06/27 13:24:31;;;;;;;3.75;0.40;;;;;;;;;;6210895;23;20012;-83
2023/06/27 13:26:57;;;;;;;2.20;0.55;;;;;;;;;;6209716;23;20120;-82
2023/06/27 13:29:23;;;;;;;3.28;0.55;;;;;;;;;;6211131;23;20021;-86
2023/06/27 13:31:49;;;;;;;1.92;0.50;;;;;;;;;;6209682;23;20091;-81
2023/06/27 13:34:16;;;;;;;3.45;0.60;;;;;;;;;;6208743;23;20070;-89
2023/06/27 13:36:42;;;;;;;0.85;0.40;;;;;;;;;;6211172;23;20330;-86
2023/06/27 13:39:08;;;;;;;1.42;0.77;;;;;;;;;;6211765;23;20016;-84
2023/06/27 13:41:34;;;;;;;1.48;0.65;;;;;;;;;;6211530;23;20353;-84
2023/06/27 13:44:00;;;;;;;2.80;0.77;;;;;;;;;;6209282;23;20315;-88
2023/06/27 13:46:26;;;;;;;2.88;0.77;;;;;;;;;;6211972;23;20017;-86
2023/06/27 13:48:53;;;;;;;2.05;0.65;;;;;;;;;;6210358;23;20074;-94
2023/06/27 13:51:19;;;;;;;2.28;0.38;;;;;;;;;;6210072;23;20237;-85
2023/06/27 13:53:45;;;;;;;1.00;0.50;;;;;;;;;;6209913;23;20016;-83
2023/06/27 13:56:12;;;;;;;1.40;0.50;;;;;;;;;;6209940;23;20012;-83
2023/06/27 13:58:38;;;;;;;2.58;0.45;;;;;;;;;;6211640;23;20019;-88
2023/06/27 14:01:04;;;;;;;2.13;0.52;;;;;;;;;;6211502;23;20038;-85
2023/06/27 14:03:31;;;;;;;4.80;0.68;;;;;;;;;;6211526;23;20013;-87
2023/06/27 14:05:57;;;;;;;3.30;0.80;;;;;;;;;;6210871;23;20012;-85
2023/06/27 14:08:23;;;;;;;1.38;0.55;;;;;;;;;;6209691;23;20024;-90
2023/06/27 14:10:49;;;;;;;1.50;0.47;;;;;;;;;;6207818;23;20411;-87
2023/06/27 14:13:16;;;;;;;0.77;0.47;;;;;;;;;;6209901;23;20044;-90
2023/06/27 14:15:43;;;;;;;2.65;0.70;;;;;;;;;;6210043;23;20020;-85
2023/06/27 14:18:09;;;;;;;0.60;0.40;;;;;;;;;;6210404;23;20021;-87
2023/06/27 14:20:35;;;;;;;0.98;0.50;;;;;;;;;;6210777;23;20009;-84
2023/06/27 14:23:04;;;;;;;2.03;0.50;;;;;;;;;;6210685;23;20012;-88
2023/06/27 14:25:30;;;;;;;1.85;0.70;;;;;;;;;;6211622;23;20048;-88
2023/06/27 14:27:56;;;;;;;2.60;0.55;;;;;;;;;;6211536;23;20441;-93
2023/06/27 14:30:22;;;;;;;1.60;0.40;;;;;;;;;;6210468;23;20427;-86
2023/06/27 14:32:49;;;;;;;2.58;0.85;;;;;;;;;;6212507;23;20017;-83
2023/06/27 14:35:16;;;;;;;1.65;0.80;;;;;;;;;;6210122;23;20374;-85
2023/06/27 14:37:42;;;;;;;1.13;0.50;;;;;;;;;;6209222;23;20028;-86
2023/06/27 14:40:11;;;;;;;3.40;0.60;;;;;;;;;;6209761;23;20024;-84
2023/06/27 14:42:38;;;;;;;0.50;0.40;;;;;;;;;;6210938;23;20028;-85